Ventura — ZCDT2 — position and weather

sailwx.info

Track history (hours):
 
Tides and Currents Weather Stations Pressure Air Temp Water Temp Dewpoint Dewpoint Depression Visibility Wind Speed Wind Dir Waves Ship Positions

Ventura

Last reported at 2017-Feb-28 05:33 UTC. Time now 2017-Feb-28 05:41 UTC.
Position N 28°15' W 015°17'.

Length 289 m; draft 8.6 m.

Type: Passenger vessel. MMSI: 310562000.

Date/timePositionNaut miles runAvg speedWind from/ knotsBaromVisibWave heightAir tempDewpointWater temp
2017-Feb-28 05:33N 28°15' W 015°17'1211.7
2017-Feb-28 04:33N 28°26' W 015°21'1312.9
2017-Feb-28 03:33N 28°34' W 015°33'1313.1
2017-Feb-28 02:33N 28°41' W 015°46'1313.1
2017-Feb-28 01:32N 28°48' W 015°59'1212.0
2017-Feb-28 00:33N 28°51' W 016°12'1412.8
2017-Feb-27 23:25N 28°49' W 016°28'5612.6
2017-Feb-27 19:00N 28°36' W 017°30'66041.3 040 / 221020.8 5.4 17.012.519.3
2017-Feb-27 03:00N 39°36' W 017°24'45657.1 050 / 151022.310.8 17.812.618.9
2017-Feb-26 19:00N 32°00' W 017°00'113 2.8 080 / 121023.910.8 18.512.618.3
2017-Feb-25 02:00N 33°36' W 015°48'16316.3 350 / 141025.0 5.4 16.013.317.0
2017-Feb-24 16:00N 36°06' W 014°30'41117.1 350 / 141022.210.8 16.212.816.0
2017-Feb-23 16:00N 42°24' W 011°00'36215.9 350 / 251017.6 5.4 14.212.613.9
2017-Feb-22 17:16N 47°31' W 006°29'1616.3
2017-Feb-22 16:19N 47°44' W 006°15'1316.1
2017-Feb-22 15:32N 47°54' W 006°04'1515.6
2017-Feb-22 14:33N 48°06' W 005°51'2015.0
2017-Feb-22 13:15N 48°22' W 005°34'913.3
2017-Feb-22 12:33N 48°30' W 005°26'1313.2
2017-Feb-22 11:33N 48°40' W 005°13'1212.2
2017-Feb-22 10:33N 48°48' W 004°59'1212.5
2017-Feb-22 09:33N 48°56' W 004°45'1312.9
2017-Feb-22 08:33N 49°04' W 004°30'3114.1
2017-Feb-22 06:19N 49°23' W 003°52'1013.0
2017-Feb-22 05:34N 49°30' W 003°41'1412.9
2017-Feb-22 04:26N 49°40' W 003°24'1112.4
2017-Feb-22 03:34N 49°47' W 003°11'1212.3
2017-Feb-22 02:33N 49°56' W 002°59'1312.5
2017-Feb-22 01:33N 50°01' W 002°40'3213.2
2017-Feb-21 23:09N 50°14' W 001°55'914.1
2017-Feb-21 22:31N 50°18' W 001°43'1513.9
2017-Feb-21 21:27N 50°26' W 001°23'1313.9
2017-Feb-21 20:33N 50°31' W 001°05'1211.9
2017-Feb-21 19:33N 50°42' W 000°58'1414.2
2017-Feb-21 18:34N 50°47' W 001°19'8 8.3
2017-Feb-21 17:33N 50°54' W 001°26'0 0.1
2017-Feb-21 16:29N 50°54' W 001°26'0 0.0
2017-Feb-21 15:17N 50°54' W 001°26'0 0.0
2017-Feb-21 14:23N 50°54' W 001°26'0 0.0
2017-Feb-21 13:20N 50°54' W 001°26'0 0.0
2017-Feb-21 12:29N 50°54' W 001°26'0 0.0
2017-Feb-21 11:23N 50°54' W 001°26'0 0.0
2017-Feb-21 10:32N 50°54' W 001°26'0 0.0
2017-Feb-21 09:29N 50°54' W 001°26'0 0.0
2017-Feb-21 08:23N 50°54' W 001°26'0 0.0
2017-Feb-21 07:29N 50°54' W 001°26'0 0.1
2017-Feb-21 06:33N 50°54' W 001°26'8 7.5
2017-Feb-21 05:33N 50°49' W 001°18'1212.3
2017-Feb-21 04:33N 50°43' W 001°00'1211.9
2017-Feb-21 03:33N 50°37' W 000°44'1615.6
2017-Feb-21 02:34N 50°34' W 000°20'1716.1
2017-Feb-21 01:30N 50°31' E 000°06'1515.5
2017-Feb-21 00:33N 50°33' E 000°29'1716.6
2017-Feb-20 23:33N 50°43' E 000°50'1716.6
2017-Feb-20 22:33N 50°54' E 001°10'1616.2
2017-Feb-20 21:33N 51°05' E 001°29'1515.5
2017-Feb-20 20:33N 51°15' E 001°47'1413.9
2017-Feb-20 19:33N 51°24' E 002°04'1414.3
2017-Feb-20 18:33N 51°22' E 002°27'1313.4
2017-Feb-20 17:33N 51°25' E 002°48'1414.4
2017-Feb-20 16:33N 51°23' E 003°10'3 2.5
2017-Feb-20 15:33N 51°20' E 003°12'0 0.0
2017-Feb-20 14:33N 51°20' E 003°12'0 0.0
2017-Feb-20 13:33N 51°20' E 003°12'0 0.0
2017-Feb-20 12:33N 51°20' E 003°12'0 0.0
2017-Feb-20 11:33N 51°20' E 003°12'0 0.0
2017-Feb-20 10:33N 51°20' E 003°12'0 0.0
2017-Feb-20 09:33N 51°20' E 003°12'0 0.0
2017-Feb-20 08:33N 51°20' E 003°12'0 0.0
2017-Feb-20 07:33N 51°20' E 003°12'0 0.0
2017-Feb-20 06:33N 51°20' E 003°12'3 2.6
2017-Feb-20 05:34N 51°23' E 003°10'1515.1
2017-Feb-20 04:33N 51°24' E 002°46'1514.7
2017-Feb-20 03:33N 51°20' E 002°23'2020.1
2017-Feb-20 02:34N 51°10' E 001°55'1919.4
2017-Feb-20 01:34N 50°58' E 001°31'2019.6
2017-Feb-20 00:33N 50°41' E 001°17'2319.2
2017-Feb-19 23:21N 50°27' E 000°48'1619.9
2017-Feb-19 22:33N 50°22' E 000°24'1818.7
2017-Feb-19 21:33N 50°22' W 000°05'1818.1
2017-Feb-19 20:33N 50°28' W 000°32'1818.1
2017-Feb-19 19:34N 50°39' W 000°55'1414.2
2017-Feb-19 18:34N 50°46' W 001°14'9 9.3
2017-Feb-19 17:33N 50°53' W 001°24'2 1.7
2017-Feb-19 16:27N 50°54' W 001°26'0 0.0
2017-Feb-19 15:33N 50°54' W 001°26'0 0.0
2017-Feb-19 14:27N 50°54' W 001°26'0 0.0
2017-Feb-19 13:33N 50°54' W 001°26'0 0.0
2017-Feb-19 12:33N 50°54' W 001°26'0 0.0
2017-Feb-19 11:33N 50°54' W 001°26'0 0.0
2017-Feb-19 10:33N 50°54' W 001°26'0 0.0
2017-Feb-19 09:33N 50°54' W 001°26'0 0.0
2017-Feb-19 08:33N 50°54' W 001°26'0 0.0
2017-Feb-19 07:33N 50°54' W 001°26'0 0.2
2017-Feb-19 06:33N 50°54' W 001°26'8 8.3
2017-Feb-19 05:34N 50°47' W 001°19'1414.4
2017-Feb-19 04:33N 50°42' W 000°58'1111.3
2017-Feb-19 03:34N 50°36' W 000°42'1717.3
2017-Feb-19 02:33N 50°33' W 000°15'1616.4
2017-Feb-19 01:33N 50°33' E 000°10'1313.4
2017-Feb-19 00:33N 50°37' E 000°30'1413.7
2017-Feb-18 23:34N 50°44' E 000°49'1514.6
2017-Feb-18 22:34N 50°53' E 001°08'1716.8
2017-Feb-18 21:34N 51°04' E 001°27'1717.2
2017-Feb-18 20:34N 51°16' E 001°48'1413.7
2017-Feb-18 19:33N 51°23' E 002°06'1414.3
2017-Feb-18 18:33N 51°23' E 002°29'1212.3
2017-Feb-18 17:34N 51°25' E 002°49'1414.2
2017-Feb-18 16:33N 51°22' E 003°11'2 2.0
2017-Feb-18 15:32N 51°20' E 003°12'0 0.0
2017-Feb-18 14:32N 51°20' E 003°12'0 0.0
2017-Feb-18 13:29N 51°20' E 003°12'0 0.0
2017-Feb-18 12:32N 51°20' E 003°12'0 0.0
2017-Feb-18 11:32N 51°20' E 003°12'0 0.0
2017-Feb-18 10:32N 51°20' E 003°12'0 0.0
2017-Feb-18 09:32N 51°20' E 003°12'0 0.0
2017-Feb-18 08:32N 51°20' E 003°12'0 0.0
2017-Feb-18 07:32N 51°20' E 003°12'0 0.0
2017-Feb-18 06:32N 51°20' E 003°12'1 1.0
2017-Feb-18 05:33N 51°21' E 003°12'  
Track history (hours):
 
Tides and Currents Weather Stations Pressure Air Temp Water Temp Dewpoint Dewpoint Depression Visibility Wind Speed Wind Dir Waves Ship Positions

Ventura

Last reported at 2017-Feb-28 05:33 UTC. Time now 2017-Feb-28 05:41 UTC.
Position N 28°15' W 015°17'.

Length 289 m; draft 8.6 m.

Type: Passenger vessel. MMSI: 310562000.

Date/timePositionNaut miles runAvg speedWind from/ knotsBaromVisibWave heightAir tempDewpointWater temp
2017-Feb-28 05:33N 28°15' W 015°17'1211.7
2017-Feb-28 04:33N 28°26' W 015°21'1312.9
2017-Feb-28 03:33N 28°34' W 015°33'1313.1
2017-Feb-28 02:33N 28°41' W 015°46'1313.1
2017-Feb-28 01:32N 28°48' W 015°59'1212.0
2017-Feb-28 00:33N 28°51' W 016°12'1412.8
2017-Feb-27 23:25N 28°49' W 016°28'5612.6
2017-Feb-27 19:00N 28°36' W 017°30'66041.3 040 / 221020.8 5.4 17.012.519.3
2017-Feb-27 03:00N 39°36' W 017°24'45657.1 050 / 151022.310.8 17.812.618.9
2017-Feb-26 19:00N 32°00' W 017°00'113 2.8 080 / 121023.910.8 18.512.618.3
2017-Feb-25 02:00N 33°36' W 015°48'16316.3 350 / 141025.0 5.4 16.013.317.0
2017-Feb-24 16:00N 36°06' W 014°30'41117.1 350 / 141022.210.8 16.212.816.0
2017-Feb-23 16:00N 42°24' W 011°00'36215.9 350 / 251017.6 5.4 14.212.613.9
2017-Feb-22 17:16N 47°31' W 006°29'1616.3
2017-Feb-22 16:19N 47°44' W 006°15'1316.1
2017-Feb-22 15:32N 47°54' W 006°04'1515.6
2017-Feb-22 14:33N 48°06' W 005°51'2015.0
2017-Feb-22 13:15N 48°22' W 005°34'913.3
2017-Feb-22 12:33N 48°30' W 005°26'1313.2
2017-Feb-22 11:33N 48°40' W 005°13'1212.2
2017-Feb-22 10:33N 48°48' W 004°59'1212.5
2017-Feb-22 09:33N 48°56' W 004°45'1312.9
2017-Feb-22 08:33N 49°04' W 004°30'3114.1
2017-Feb-22 06:19N 49°23' W 003°52'1013.0
2017-Feb-22 05:34N 49°30' W 003°41'1412.9
2017-Feb-22 04:26N 49°40' W 003°24'1112.4
2017-Feb-22 03:34N 49°47' W 003°11'1212.3
2017-Feb-22 02:33N 49°56' W 002°59'1312.5
2017-Feb-22 01:33N 50°01' W 002°40'3213.2
2017-Feb-21 23:09N 50°14' W 001°55'914.1
2017-Feb-21 22:31N 50°18' W 001°43'1513.9
2017-Feb-21 21:27N 50°26' W 001°23'1313.9
2017-Feb-21 20:33N 50°31' W 001°05'1211.9
2017-Feb-21 19:33N 50°42' W 000°58'1414.2
2017-Feb-21 18:34N 50°47' W 001°19'8 8.3
2017-Feb-21 17:33N 50°54' W 001°26'0 0.1
2017-Feb-21 16:29N 50°54' W 001°26'0 0.0
2017-Feb-21 15:17N 50°54' W 001°26'0 0.0
2017-Feb-21 14:23N 50°54' W 001°26'0 0.0
2017-Feb-21 13:20N 50°54' W 001°26'0 0.0
2017-Feb-21 12:29N 50°54' W 001°26'0 0.0
2017-Feb-21 11:23N 50°54' W 001°26'0 0.0
2017-Feb-21 10:32N 50°54' W 001°26'0 0.0
2017-Feb-21 09:29N 50°54' W 001°26'0 0.0
2017-Feb-21 08:23N 50°54' W 001°26'0 0.0
2017-Feb-21 07:29N 50°54' W 001°26'0 0.1
2017-Feb-21 06:33N 50°54' W 001°26'8 7.5
2017-Feb-21 05:33N 50°49' W 001°18'1212.3
2017-Feb-21 04:33N 50°43' W 001°00'1211.9
2017-Feb-21 03:33N 50°37' W 000°44'1615.6
2017-Feb-21 02:34N 50°34' W 000°20'1716.1
2017-Feb-21 01:30N 50°31' E 000°06'1515.5
2017-Feb-21 00:33N 50°33' E 000°29'1716.6
2017-Feb-20 23:33N 50°43' E 000°50'1716.6
2017-Feb-20 22:33N 50°54' E 001°10'1616.2
2017-Feb-20 21:33N 51°05' E 001°29'1515.5
2017-Feb-20 20:33N 51°15' E 001°47'1413.9
2017-Feb-20 19:33N 51°24' E 002°04'1414.3
2017-Feb-20 18:33N 51°22' E 002°27'1313.4
2017-Feb-20 17:33N 51°25' E 002°48'1414.4
2017-Feb-20 16:33N 51°23' E 003°10'3 2.5
2017-Feb-20 15:33N 51°20' E 003°12'0 0.0
2017-Feb-20 14:33N 51°20' E 003°12'0 0.0
2017-Feb-20 13:33N 51°20' E 003°12'0 0.0
2017-Feb-20 12:33N 51°20' E 003°12'0 0.0
2017-Feb-20 11:33N 51°20' E 003°12'0 0.0
2017-Feb-20 10:33N 51°20' E 003°12'0 0.0
2017-Feb-20 09:33N 51°20' E 003°12'0 0.0
2017-Feb-20 08:33N 51°20' E 003°12'0 0.0
2017-Feb-20 07:33N 51°20' E 003°12'0 0.0
2017-Feb-20 06:33N 51°20' E 003°12'3 2.6
2017-Feb-20 05:34N 51°23' E 003°10'1515.1
2017-Feb-20 04:33N 51°24' E 002°46'1514.7
2017-Feb-20 03:33N 51°20' E 002°23'2020.1
2017-Feb-20 02:34N 51°10' E 001°55'1919.4
2017-Feb-20 01:34N 50°58' E 001°31'2019.6
2017-Feb-20 00:33N 50°41' E 001°17'2319.2
2017-Feb-19 23:21N 50°27' E 000°48'1619.9
2017-Feb-19 22:33N 50°22' E 000°24'1818.7
2017-Feb-19 21:33N 50°22' W 000°05'1818.1
2017-Feb-19 20:33N 50°28' W 000°32'1818.1
2017-Feb-19 19:34N 50°39' W 000°55'1414.2
2017-Feb-19 18:34N 50°46' W 001°14'9 9.3
2017-Feb-19 17:33N 50°53' W 001°24'2 1.7
2017-Feb-19 16:27N 50°54' W 001°26'0 0.0
2017-Feb-19 15:33N 50°54' W 001°26'0 0.0
2017-Feb-19 14:27N 50°54' W 001°26'0 0.0
2017-Feb-19 13:33N 50°54' W 001°26'0 0.0
2017-Feb-19 12:33N 50°54' W 001°26'0 0.0
2017-Feb-19 11:33N 50°54' W 001°26'0 0.0
2017-Feb-19 10:33N 50°54' W 001°26'0 0.0
2017-Feb-19 09:33N 50°54' W 001°26'0 0.0
2017-Feb-19 08:33N 50°54' W 001°26'0 0.0
2017-Feb-19 07:33N 50°54' W 001°26'0 0.2
2017-Feb-19 06:33N 50°54' W 001°26'8 8.3
2017-Feb-19 05:34N 50°47' W 001°19'1414.4
2017-Feb-19 04:33N 50°42' W 000°58'1111.3
2017-Feb-19 03:34N 50°36' W 000°42'1717.3
2017-Feb-19 02:33N 50°33' W 000°15'1616.4
2017-Feb-19 01:33N 50°33' E 000°10'1313.4
2017-Feb-19 00:33N 50°37' E 000°30'1413.7
2017-Feb-18 23:34N 50°44' E 000°49'1514.6
2017-Feb-18 22:34N 50°53' E 001°08'1716.8
2017-Feb-18 21:34N 51°04' E 001°27'1717.2
2017-Feb-18 20:34N 51°16' E 001°48'1413.7
2017-Feb-18 19:33N 51°23' E 002°06'1414.3
2017-Feb-18 18:33N 51°23' E 002°29'1212.3
2017-Feb-18 17:34N 51°25' E 002°49'1414.2
2017-Feb-18 16:33N 51°22' E 003°11'2 2.0
2017-Feb-18 15:32N 51°20' E 003°12'0 0.0
2017-Feb-18 14:32N 51°20' E 003°12'0 0.0
2017-Feb-18 13:29N 51°20' E 003°12'0 0.0
2017-Feb-18 12:32N 51°20' E 003°12'0 0.0
2017-Feb-18 11:32N 51°20' E 003°12'0 0.0
2017-Feb-18 10:32N 51°20' E 003°12'0 0.0
2017-Feb-18 09:32N 51°20' E 003°12'0 0.0
2017-Feb-18 08:32N 51°20' E 003°12'0 0.0
2017-Feb-18 07:32N 51°20' E 003°12'0 0.0
2017-Feb-18 06:32N 51°20' E 003°12'1 1.0
2017-Feb-18 05:33N 51°21' E 003°12'  

Dump ship's entire track history